Time;durP1;ratioP1;P1;durP2;ratioP2;P2;SDS_P1;SDS_P2;PMS_P1;PMS_P2;Temp;Humidity;BMP_temperature;BMP_pressure;BME280_temperature;BME280_humidity;BME280_pressure;Samples;Min_cycle;Max_cycle;Signal;HPM_P1;HPM_P2
2023/05/07 00:01:48;;;;;;;2.70;2.00;;;15.20;99.90;;;;;;5053416;28;20197;-85
2023/05/07 00:04:14;;;;;;;2.40;2.20;;;15.20;1.00;;;;;;5054966;28;20193;-85
2023/05/07 00:06:39;;;;;;;3.03;2.40;;;15.10;1.00;;;;;;5055210;28;20224;-85
2023/05/07 00:09:06;;;;;;;3.20;2.60;;;15.20;1.00;;;;;;5053409;28;20174;-84
2023/05/07 00:11:32;;;;;;;3.43;2.77;;;15.10;1.00;;;;;;5052864;28;20193;-87
2023/05/07 00:13:57;;;;;;;2.57;2.37;;;15.10;99.90;;;;;;5053018;28;20178;-84
2023/05/07 00:16:23;;;;;;;2.87;2.47;;;15.10;1.00;;;;;;5053343;28;20215;-85
2023/05/07 00:18:48;;;;;;;2.90;2.70;;;15.00;1.00;;;;;;5053137;28;20177;-84
2023/05/07 00:21:14;;;;;;;3.67;2.70;;;15.00;1.00;;;;;;5052904;28;20193;-85
2023/05/07 00:23:40;;;;;;;3.43;2.57;;;15.00;1.00;;;;;;5052873;28;20173;-86
2023/05/07 00:26:05;;;;;;;2.70;2.40;;;15.10;99.90;;;;;;5052825;28;20169;-85
2023/05/07 00:28:31;;;;;;;2.87;2.63;;;15.20;99.90;;;;;;5053438;28;20177;-85
2023/05/07 00:30:57;;;;;;;2.97;2.50;;;15.30;99.90;;;;;;5054188;28;20193;-85
2023/05/07 00:33:22;;;;;;;3.27;2.70;;;15.30;1.00;;;;;;5054168;28;20192;-85
2023/05/07 00:35:48;;;;;;;3.27;2.80;;;15.30;1.00;;;;;;5054622;28;20177;-85
2023/05/07 00:38:14;;;;;;;3.27;2.70;;;15.20;13.20;;;;;;5052889;28;20666;-85
2023/05/07 00:40:40;;;;;;;3.90;2.77;;;15.20;99.90;;;;;;5052430;28;20198;-83
2023/05/07 00:43:06;;;;;;;2.80;2.57;;;15.20;1.00;;;;;;5054023;28;20287;-85
2023/05/07 00:45:33;;;;;;;3.37;2.80;;;15.10;99.90;;;;;;5053803;28;20200;-84
2023/05/07 00:48:00;;;;;;;3.37;2.40;;;15.10;1.00;;;;;;5052285;28;20166;-84
2023/05/07 00:50:28;;;;;;;2.90;2.60;;;15.00;1.00;;;;;;5052913;28;20255;-84
2023/05/07 00:52:53;;;;;;;3.53;2.80;;;15.10;1.00;;;;;;5053805;28;20177;-85
2023/05/07 00:55:20;;;;;;;2.90;2.60;;;15.10;99.90;;;;;;5054191;28;20173;-85
2023/05/07 00:57:45;;;;;;;3.17;2.87;;;15.10;1.00;;;;;;5053853;28;20215;-85
2023/05/07 01:00:12;;;;;;;3.80;3.27;;;15.20;11.00;;;;;;5052779;28;20197;-84
2023/05/07 01:02:41;;;;;;;3.83;3.53;;;15.10;99.90;;;;;;5053743;28;20193;-86
2023/05/07 01:05:11;;;;;;;4.20;3.80;;;15.10;1.00;;;;;;5052363;28;20334;-85
2023/05/07 01:07:38;;;;;;;4.43;3.70;;;15.10;99.90;;;;;;5053598;28;20181;-85
2023/05/07 01:10:05;;;;;;;6.40;4.00;;;15.10;1.00;;;;;;5051941;28;20296;-84
2023/05/07 01:12:31;;;;;;;3.93;3.60;;;15.20;1.00;;;;;;5051679;28;20582;-85
2023/05/07 01:14:57;;;;;;;5.63;4.00;;;15.10;99.90;;;;;;5051853;28;20174;-85
2023/05/07 01:17:23;;;;;;;4.97;4.40;;;15.10;1.00;;;;;;5052466;28;20243;-84
2023/05/07 01:19:49;;;;;;;5.80;5.30;;;15.20;99.90;;;;;;5053249;28;20545;-84
2023/05/07 01:22:21;;;;;;;7.03;6.33;;;15.00;2.60;;;;;;5053482;28;20173;-85
2023/05/07 01:24:47;;;;;;;9.50;7.07;;;15.00;99.90;;;;;;5053130;28;20204;-85
2023/05/07 01:27:12;;;;;;;7.27;6.57;;;14.90;99.90;;;;;;5052054;28;20182;-86
2023/05/07 01:29:38;;;;;;;8.43;6.20;;;14.90;1.00;;;;;;5068892;28;20200;-85
2023/05/07 01:32:05;;;;;;;7.03;6.33;;;14.90;1.00;;;;;;5060437;28;20215;-84
2023/05/07 01:34:33;;;;;;;8.00;7.20;;;14.90;1.00;;;;;;5052055;28;20174;-85
2023/05/07 01:37:00;;;;;;;7.67;6.93;;;14.90;1.00;;;;;;5051903;28;20195;-85
2023/05/07 01:39:27;;;;;;;9.93;7.83;;;14.80;1.00;;;;;;5051896;28;20225;-85
2023/05/07 01:41:55;;;;;;;8.80;7.90;;;14.80;1.00;;;;;;5053114;28;20173;-84
2023/05/07 01:44:21;;;;;;;8.60;7.70;;;14.80;1.00;;;;;;5052970;28;20259;-85
2023/05/07 01:46:47;;;;;;;10.57;7.80;;;14.80;1.00;;;;;;5051882;28;20173;-85
2023/05/07 01:49:14;;;;;;;8.73;7.83;;;14.80;1.00;;;;;;5051617;28;20190;-85
2023/05/07 01:51:40;;;;;;;8.77;7.80;;;14.80;1.00;;;;;;5052918;28;20787;-84
2023/05/07 01:54:06;;;;;;;11.67;8.87;;;14.80;1.00;;;;;;5052799;28;20178;-86
2023/05/07 01:56:32;;;;;;;11.00;9.10;;;14.80;1.00;;;;;;5052706;28;20235;-86
2023/05/07 01:58:57;;;;;;;9.23;8.30;;;14.70;1.00;;;;;;5050933;28;20265;-85
2023/05/07 02:01:23;;;;;;;10.20;9.07;;;14.80;1.00;;;;;;5051798;28;20242;-85
2023/05/07 02:03:49;;;;;;;10.80;9.70;;;14.80;1.00;;;;;;5052572;28;20258;-85
2023/05/07 02:06:15;;;;;;;10.67;8.93;;;14.60;1.00;;;;;;5051091;28;20165;-85
2023/05/07 02:08:40;;;;;;;9.83;8.83;;;14.60;1.00;;;;;;5051781;28;20172;-85
2023/05/07 02:11:06;;;;;;;10.87;9.27;;;14.50;1.00;;;;;;5052397;28;20211;-85
2023/05/07 02:13:33;;;;;;;10.67;9.57;;;14.50;1.00;;;;;;5051501;28;20173;-85
2023/05/07 02:15:58;;;;;;;11.23;9.67;;;14.60;1.00;;;;;;5052687;28;20174;-86
2023/05/07 02:18:24;;;;;;;14.80;10.23;;;14.60;1.00;;;;;;5051029;28;20560;-85
2023/05/07 02:20:50;;;;;;;12.07;10.60;;;14.70;1.00;;;;;;5052399;28;20193;-85
2023/05/07 02:23:15;;;;;;;12.67;11.37;;;14.60;1.00;;;;;;5051138;28;20212;-85
2023/05/07 02:25:41;;;;;;;12.50;10.90;;;14.50;1.00;;;;;;5050977;28;20679;-85
2023/05/07 02:28:06;;;;;;;12.00;10.40;;;14.40;1.00;;;;;;5051216;28;20257;-85
2023/05/07 02:30:32;;;;;;;13.00;11.17;;;14.40;1.00;;;;;;5050914;28;20610;-85
2023/05/07 02:32:58;;;;;;;12.03;10.77;;;14.30;1.00;;;;;;5051007;28;20177;-85
2023/05/07 02:35:26;;;;;;;11.27;10.00;;;14.40;1.00;;;;;;5052142;28;20545;-85
2023/05/07 02:37:52;;;;;;;11.60;10.20;;;14.40;1.00;;;;;;5050930;28;20185;-85
2023/05/07 02:40:18;;;;;;;11.87;10.60;;;14.40;1.00;;;;;;5050579;28;20194;-86
2023/05/07 02:42:43;;;;;;;10.53;9.40;;;14.40;1.00;;;;;;5050682;28;20264;-85
2023/05/07 02:45:09;;;;;;;9.87;8.77;;;14.40;1.00;;;;;;5050633;28;20197;-85
2023/05/07 02:47:35;;;;;;;10.27;9.20;;;14.40;1.00;;;;;;5051090;28;20184;-85
2023/05/07 02:50:01;;;;;;;13.10;11.20;;;14.30;1.00;;;;;;5050559;28;20193;-84
2023/05/07 02:52:26;;;;;;;13.60;11.20;;;14.20;1.00;;;;;;5052058;28;20280;-84
2023/05/07 02:54:52;;;;;;;12.57;11.23;;;14.10;53.20;;;;;;5050881;28;20232;-85
2023/05/07 02:57:17;;;;;;;12.43;11.13;;;14.00;99.90;;;;;;5050832;28;20186;-85
2023/05/07 02:59:43;;;;;;;11.77;10.53;;;14.00;99.90;;;;;;5050486;28;20197;-85
2023/05/07 03:02:09;;;;;;;13.03;11.43;;;13.90;99.90;;;;;;5059277;28;20597;-86
2023/05/07 03:04:35;;;;;;;12.17;10.90;;;13.90;99.90;;;;;;5070696;28;20205;-86
2023/05/07 03:07:00;;;;;;;11.60;10.40;;;13.90;99.90;;;;;;5070724;28;20180;-86
2023/05/07 03:09:26;;;;;;;13.17;11.50;;;14.00;99.90;;;;;;5071061;28;20235;-85
2023/05/07 03:11:51;;;;;;;13.80;12.40;;;14.10;99.90;;;;;;5075339;28;20677;-85
2023/05/07 03:14:17;;;;;;;14.47;12.03;;;14.00;80.80;;;;;;5074161;28;20180;-85
2023/05/07 03:16:43;;;;;;;13.90;12.33;;;14.00;99.90;;;;;;5074461;28;20173;-85
2023/05/07 03:19:08;;;;;;;14.17;12.67;;;14.10;55.70;;;;;;5073969;28;20169;-85
2023/05/07 03:21:34;;;;;;;13.17;11.77;;;14.10;56.00;;;;;;5075231;28;20307;-85
2023/05/07 03:24:00;;;;;;;13.17;11.77;;;14.10;17.20;;;;;;5074152;28;20197;-86
2023/05/07 03:26:25;;;;;;;14.47;12.97;;;14.10;9.60;;;;;;5074126;28;20573;-86
2023/05/07 03:28:51;;;;;;;15.03;12.40;;;14.10;1.00;;;;;;5073930;28;20172;-85
2023/05/07 03:31:17;;;;;;;15.53;12.67;;;14.10;2.90;;;;;;5073807;28;20199;-84
2023/05/07 03:33:57;;;;;;;14.37;12.87;;;14.10;4.40;;;;;;5073817;28;20172;-85
2023/05/07 03:36:23;;;;;;;15.73;13.27;;;14.20;2.10;;;;;;5074108;28;20176;-86
2023/05/07 03:38:49;;;;;;;13.37;11.90;;;14.10;19.80;;;;;;5074571;28;20294;-85
2023/05/07 03:41:15;;;;;;;13.63;12.00;;;14.10;32.10;;;;;;5069767;28;20280;-85
2023/05/07 03:43:41;;;;;;;15.40;13.07;;;14.10;5.00;;;;;;5067085;28;20636;-85
2023/05/07 03:46:07;;;;;;;15.13;13.23;;;14.10;12.00;;;;;;5074829;28;20173;-85
2023/05/07 03:48:32;;;;;;;15.70;13.40;;;14.10;48.70;;;;;;5074659;28;20538;-85
2023/05/07 03:50:58;;;;;;;15.63;12.77;;;14.00;42.00;;;;;;5073039;28;20694;-85
2023/05/07 03:53:24;;;;;;;15.10;12.37;;;14.10;22.20;;;;;;5073139;28;20165;-85
2023/05/07 03:55:49;;;;;;;15.17;12.70;;;14.10;72.50;;;;;;5074470;28;20223;-85
2023/05/07 03:58:15;;;;;;;16.20;12.97;;;14.00;81.50;;;;;;5073302;28;20264;-85
2023/05/07 04:00:41;;;;;;;15.80;13.33;;;14.00;90.80;;;;;;5073138;28;20568;-86
2023/05/07 04:03:07;;;;;;;15.67;13.47;;;14.10;64.00;;;;;;5074355;28;20169;-86
2023/05/07 04:05:33;;;;;;;15.77;13.40;;;14.10;79.70;;;;;;5074344;28;20199;-87
2023/05/07 04:07:59;;;;;;;15.47;13.27;;;14.10;73.50;;;;;;5074342;28;20176;-85
2023/05/07 04:10:25;;;;;;;15.80;12.93;;;14.10;52.70;;;;;;5073946;28;20626;-85
2023/05/07 04:12:50;;;;;;;15.70;13.93;;;14.00;68.40;;;;;;5074353;28;20192;-85
2023/05/07 04:15:16;;;;;;;16.40;13.90;;;14.00;99.90;;;;;;5072944;28;20173;-85
2023/05/07 04:17:41;;;;;;;16.30;13.20;;;14.00;99.90;;;;;;5072756;28;20218;-85
2023/05/07 04:20:14;;;;;;;14.87;13.20;;;14.00;99.90;;;;;;5073668;28;20559;-85
2023/05/07 04:22:40;;;;;;;16.03;13.63;;;14.00;99.90;;;;;;5073412;28;20237;-86
2023/05/07 04:25:06;;;;;;;17.27;13.33;;;14.10;96.90;;;;;;5072702;28;20245;-85
2023/05/07 04:27:32;;;;;;;14.77;12.63;;;14.10;99.70;;;;;;5073778;28;20544;-86
2023/05/07 04:29:57;;;;;;;15.60;13.63;;;14.10;89.30;;;;;;5072354;28;20197;-85
2023/05/07 04:32:24;;;;;;;18.10;14.37;;;14.10;97.40;;;;;;5072557;28;20169;-85
2023/05/07 04:34:50;;;;;;;16.27;13.47;;;14.10;17.20;;;;;;5074055;28;20196;-82
2023/05/07 04:37:16;;;;;;;16.50;14.77;;;14.10;30.20;;;;;;5073422;28;20181;-83
2023/05/07 04:39:41;;;;;;;16.60;14.53;;;14.10;78.20;;;;;;5074043;28;20671;-83
2023/05/07 04:42:08;;;;;;;18.77;14.70;;;14.10;75.10;;;;;;5073385;28;20169;-82
2023/05/07 04:44:35;;;;;;;17.07;14.50;;;14.20;79.70;;;;;;5073775;28;20223;-82
2023/05/07 04:47:00;;;;;;;15.90;13.17;;;14.20;85.00;;;;;;5073553;28;20165;-81
2023/05/07 04:49:26;;;;;;;16.37;13.77;;;14.30;1.00;;;;;;5073569;28;20211;-82
2023/05/07 04:51:52;;;;;;;17.17;14.33;;;14.20;1.00;;;;;;5073621;28;20165;-81
2023/05/07 04:54:17;;;;;;;19.27;15.03;;;14.20;1.00;;;;;;5074005;28;20184;-82
2023/05/07 04:56:43;;;;;;;17.73;15.00;;;14.10;35.80;;;;;;5075181;28;20173;-82
2023/05/07 04:59:08;;;;;;;17.63;15.03;;;14.10;99.90;;;;;;5074882;28;20181;-82
2023/05/07 05:01:34;;;;;;;18.37;14.80;;;14.10;99.90;;;;;;5073552;28;20188;-82
2023/05/07 05:04:00;;;;;;;18.37;15.40;;;14.10;95.60;;;;;;5073447;28;20179;-82
2023/05/07 05:06:25;;;;;;;19.43;15.50;;;14.00;99.90;;;;;;5073365;28;20647;-81
2023/05/07 05:08:51;;;;;;;18.03;15.07;;;13.90;99.90;;;;;;5072632;28;20243;-82
2023/05/07 05:11:17;;;;;;;19.33;15.40;;;14.00;99.90;;;;;;5124490;22;20704;-81
2023/05/07 05:13:42;;;;;;;18.77;15.13;;;14.00;70.20;;;;;;5068037;28;20174;-81
2023/05/07 05:16:08;;;;;;;19.27;15.23;;;14.00;99.90;;;;;;5067639;28;20268;-84
2023/05/07 05:18:33;;;;;;;20.40;15.93;;;14.10;99.90;;;;;;5084651;28;20188;-83
2023/05/07 05:20:59;;;;;;;19.20;14.97;;;14.10;99.90;;;;;;5067635;28;20327;-84
2023/05/07 05:23:24;;;;;;;19.07;15.60;;;14.10;99.90;;;;;;5068946;28;20186;-85
2023/05/07 05:25:54;;;;;;;20.47;15.27;;;14.20;28.50;;;;;;5067423;28;20201;-84
2023/05/07 05:28:20;;;;;;;18.00;15.33;;;14.30;78.80;;;;;;5068878;28;20178;-85
2023/05/07 05:30:45;;;;;;;18.90;15.23;;;14.30;1.00;;;;;;5067840;28;20247;-82
2023/05/07 05:33:11;;;;;;;16.87;14.77;;;14.30;1.00;;;;;;5058058;28;20174;-82
2023/05/07 05:35:37;;;;;;;19.33;14.57;;;14.10;26.90;;;;;;5060958;28;20177;-82
2023/05/07 05:38:03;;;;;;;17.60;14.10;;;14.10;46.80;;;;;;5062334;28;20188;-82
2023/05/07 05:40:28;;;;;;;18.13;14.37;;;14.10;24.60;;;;;;5072325;28;20199;-82
2023/05/07 05:42:54;;;;;;;19.00;14.80;;;14.10;1.00;;;;;;5081059;28;20177;-82
2023/05/07 05:45:19;;;;;;;17.83;14.27;;;14.10;1.00;;;;;;5079355;28;20200;-82
2023/05/07 05:47:45;;;;;;;18.50;14.53;;;14.10;3.40;;;;;;5079237;28;20238;-82
2023/05/07 05:50:11;;;;;;;19.93;14.60;;;14.10;51.50;;;;;;5079050;28;20216;-82
2023/05/07 05:52:36;;;;;;;16.57;14.20;;;14.20;68.80;;;;;;5080240;28;20173;-82
2023/05/07 05:55:02;;;;;;;18.30;14.33;;;14.30;10.60;;;;;;5080618;28;20219;-82
2023/05/07 05:57:27;;;;;;;18.20;13.60;;;14.30;1.00;;;;;;5080051;28;20177;-83
2023/05/07 05:59:53;;;;;;;18.90;14.80;;;14.30;1.00;;;;;;5071391;28;20225;-82
2023/05/07 06:02:19;;;;;;;18.13;14.23;;;14.30;1.00;;;;;;5077533;28;20181;-82
2023/05/07 06:04:45;;;;;;;18.03;14.23;;;14.30;1.00;;;;;;5080836;28;20234;-82
2023/05/07 06:07:11;;;;;;;18.03;14.07;;;14.30;1.00;;;;;;5079220;28;20169;-82
2023/05/07 06:09:36;;;;;;;16.67;13.80;;;14.40;1.00;;;;;;5077779;28;20268;-81
2023/05/07 06:12:02;;;;;;;18.10;14.57;;;14.40;1.00;;;;;;5078714;28;20200;-83
2023/05/07 06:14:28;;;;;;;16.37;13.43;;;14.40;1.00;;;;;;5080880;28;20260;-81
2023/05/07 06:16:53;;;;;;;17.00;13.63;;;14.50;1.00;;;;;;5079954;28;20173;-82
2023/05/07 06:19:22;;;;;;;18.10;13.77;;;14.50;1.00;;;;;;5079341;28;20173;-82
2023/05/07 06:21:48;;;;;;;16.87;13.53;;;14.40;1.00;;;;;;5078593;28;20172;-82
2023/05/07 06:24:14;;;;;;;15.70;13.27;;;14.50;1.00;;;;;;5080279;28;20222;-82
2023/05/07 06:26:40;;;;;;;17.83;13.50;;;14.50;1.00;;;;;;5079612;28;20177;-82
2023/05/07 06:29:06;;;;;;;16.80;13.47;;;14.60;1.00;;;;;;5074267;28;20180;-82
2023/05/07 06:31:31;;;;;;;16.30;12.87;;;14.60;1.00;;;;;;5075260;28;20196;-82
2023/05/07 06:33:58;;;;;;;16.60;13.43;;;14.60;1.00;;;;;;5075985;28;20165;-81
2023/05/07 06:36:24;;;;;;;15.60;12.50;;;14.60;1.00;;;;;;5078107;28;20165;-80
2023/05/07 06:38:49;;;;;;;17.90;12.77;;;14.60;1.00;;;;;;5076973;28;20180;-82
2023/05/07 06:41:15;;;;;;;16.40;12.33;;;14.60;1.00;;;;;;5052743;28;20201;-84
2023/05/07 06:43:40;;;;;;;14.87;12.77;;;14.60;1.00;;;;;;5057254;28;20194;-82
2023/05/07 06:46:06;;;;;;;15.57;12.60;;;14.70;1.00;;;;;;5050082;28;20205;-82
2023/05/07 06:48:32;;;;;;;15.50;12.63;;;14.70;1.00;;;;;;5066045;28;20196;-82
2023/05/07 06:50:57;;;;;;;12.27;10.37;;;14.80;1.00;;;;;;5065988;28;20194;-82
2023/05/07 06:53:23;;;;;;;13.57;10.90;;;14.80;1.00;;;;;;5064769;28;20169;-82
2023/05/07 06:55:49;;;;;;;15.37;11.93;;;14.80;99.90;;;;;;5065225;28;20193;-82
2023/05/07 06:58:15;;;;;;;13.77;10.50;;;14.90;99.90;;;;;;5061662;28;20175;-82
2023/05/07 07:00:40;;;;;;;12.80;10.10;;;15.00;99.90;;;;;;5044958;28;20237;-82
2023/05/07 07:03:06;;;;;;;12.13;10.30;;;15.00;1.00;;;;;;5045732;28;20169;-81
2023/05/07 07:05:32;;;;;;;12.00;9.70;;;15.00;1.00;;;;;;5047616;28;20209;-82
2023/05/07 07:07:58;;;;;;;11.07;9.23;;;15.00;99.90;;;;;;5047219;28;20174;-83
2023/05/07 07:10:24;;;;;;;11.00;9.30;;;15.10;99.90;;;;;;5045339;28;20214;-83
2023/05/07 07:12:49;;;;;;;11.37;9.30;;;15.10;1.00;;;;;;5057947;28;20256;-82
2023/05/07 07:15:16;;;;;;;10.57;8.77;;;15.20;1.00;;;;;;5071643;28;20235;-83
2023/05/07 07:17:42;;;;;;;12.20;9.97;;;15.20;20.40;;;;;;5078645;28;20189;-83
2023/05/07 07:20:08;;;;;;;11.63;9.50;;;15.30;1.00;;;;;;5067092;28;20197;-83
2023/05/07 07:22:33;;;;;;;11.97;10.17;;;15.30;1.00;;;;;;5066239;28;20200;-83
2023/05/07 07:24:59;;;;;;;12.20;10.90;;;15.40;99.90;;;;;;5065672;28;20217;-84
2023/05/07 07:27:25;;;;;;;11.90;9.83;;;15.50;99.90;;;;;;5069338;28;20169;-85
2023/05/07 07:29:50;;;;;;;14.30;11.20;;;15.60;99.90;;;;;;5067924;28;20190;-78
2023/05/07 07:32:16;;;;;;;13.83;10.93;;;15.60;1.00;;;;;;5067270;28;20170;-82
2023/05/07 07:34:41;;;;;;;15.20;11.50;;;15.70;1.00;;;;;;5069837;28;20174;-84
2023/05/07 07:37:07;;;;;;;13.97;11.03;;;15.70;1.00;;;;;;5069569;28;20198;-83
2023/05/07 07:39:33;;;;;;;14.27;10.73;;;15.70;99.90;;;;;;5061495;28;20180;-83
2023/05/07 07:41:59;;;;;;;13.27;10.80;;;15.70;99.90;;;;;;5060702;28;20597;-82
2023/05/07 07:44:25;;;;;;;13.83;10.47;;;15.70;1.00;;;;;;5061295;28;20240;-82
2023/05/07 07:46:51;;;;;;;12.67;9.90;;;15.70;1.00;;;;;;5060756;28;20174;-83
2023/05/07 07:49:16;;;;;;;12.00;9.03;;;15.80;99.90;;;;;;5059369;28;20695;-82
2023/05/07 07:51:42;;;;;;;12.27;8.87;;;15.90;1.00;;;;;;5059301;28;20185;-83
2023/05/07 07:54:08;;;;;;;10.70;8.93;;;16.00;1.00;;;;;;5058928;28;20177;-82
2023/05/07 07:56:34;;;;;;;9.63;8.60;;;16.10;99.90;;;;;;5059315;28;20632;-82
2023/05/07 07:59:00;;;;;;;9.63;8.43;;;16.30;1.00;;;;;;5059034;28;20176;-82
2023/05/07 08:01:26;;;;;;;12.83;9.50;;;16.40;1.00;;;;;;5058951;28;20186;-83
2023/05/07 08:03:51;;;;;;;11.23;9.27;;;16.60;1.00;;;;;;5058811;28;20260;-83
2023/05/07 08:06:17;;;;;;;8.87;7.80;;;16.80;43.00;;;;;;5060480;28;20197;-83
2023/05/07 08:08:43;;;;;;;10.67;8.33;;;17.00;1.00;;;;;;5058794;28;20698;-85
2023/05/07 08:11:09;;;;;;;9.73;8.53;;;17.10;94.50;;;;;;5058557;28;20239;-82
2023/05/07 08:13:35;;;;;;;8.73;7.83;;;17.20;1.00;;;;;;5058615;28;20186;-82
2023/05/07 08:16:00;;;;;;;10.70;8.30;;;17.10;1.00;;;;;;5059791;28;20260;-83
2023/05/07 08:18:28;;;;;;;10.27;9.13;;;17.30;99.90;;;;;;5058931;28;20178;-83
2023/05/07 08:20:53;;;;;;;10.57;7.77;;;17.30;99.90;;;;;;5058857;28;20265;-83
2023/05/07 08:23:19;;;;;;;10.33;8.13;;;17.30;99.90;;;;;;5058523;28;20209;-83
2023/05/07 08:25:45;;;;;;;9.40;7.47;;;17.30;99.90;;;;;;5060463;28;20228;-82
2023/05/07 08:28:10;;;;;;;8.00;6.83;;;17.40;92.80;;;;;;5059134;28;20169;-82
2023/05/07 08:30:36;;;;;;;8.07;7.20;;;17.40;99.90;;;;;;5060898;28;20204;-83
2023/05/07 08:33:02;;;;;;;7.27;6.50;;;17.50;99.90;;;;;;5059424;28;20170;-85
2023/05/07 08:35:27;;;;;;;10.37;9.07;;;17.60;1.00;;;;;;5060174;28;20181;-82
2023/05/07 08:37:53;;;;;;;8.47;7.50;;;17.70;99.90;;;;;;5059085;28;20185;-83
2023/05/07 08:40:21;;;;;;;10.33;8.47;;;17.60;99.90;;;;;;5061507;28;20204;-82
2023/05/07 08:42:49;;;;;;;10.27;8.63;;;17.50;99.90;;;;;;5058395;28;20173;-83
2023/05/07 08:45:16;;;;;;;10.13;7.60;;;17.40;99.90;;;;;;5058398;28;20221;-83
2023/05/07 08:47:50;;;;;;;9.30;8.40;;;17.50;1.00;;;;;;5061326;28;20241;-82
2023/05/07 08:50:16;;;;;;;10.13;8.20;;;17.60;99.90;;;;;;5058353;28;20190;-83
2023/05/07 08:52:42;;;;;;;9.67;8.33;;;17.60;99.90;;;;;;5061089;28;20189;-83
2023/05/07 08:55:08;;;;;;;9.70;8.00;;;17.70;99.90;;;;;;5060491;28;20178;-83
2023/05/07 08:57:34;;;;;;;10.13;7.97;;;17.70;1.00;;;;;;5058594;28;20173;-83
2023/05/07 09:00:00;;;;;;;10.17;7.97;;;17.80;99.90;;;;;;5057805;28;20549;-83
2023/05/07 09:02:25;;;;;;;10.67;8.27;;;18.00;1.00;;;;;;5063258;28;20182;-83
2023/05/07 09:04:52;;;;;;;9.87;8.63;;;18.10;1.00;;;;;;5071571;28;20217;-83
2023/05/07 09:07:19;;;;;;;10.87;8.13;;;18.30;1.00;;;;;;5078199;28;20173;-83
2023/05/07 09:09:46;;;;;;;8.20;7.27;;;18.50;1.00;;;;;;5079438;28;20585;-83
2023/05/07 09:12:11;;;;;;;8.93;7.87;;;18.70;99.90;;;;;;5079612;28;20180;-85
2023/05/07 09:14:37;;;;;;;9.30;7.90;;;18.90;64.70;;;;;;5078059;28;20176;-83
2023/05/07 09:17:03;;;;;;;10.23;7.60;;;18.90;99.90;;;;;;5079462;28;20199;-81
2023/05/07 09:19:29;;;;;;;8.27;7.20;;;19.00;1.00;;;;;;5080741;28;20176;-82
2023/05/07 09:22:03;;;;;;;10.03;7.87;;;19.00;99.90;;;;;;5080965;28;20187;-83
2023/05/07 09:24:33;;;;;;;12.30;7.60;;;19.00;14.50;;;;;;5078922;28;20698;-83
2023/05/07 09:27:00;;;;;;;8.57;7.67;;;18.90;92.70;;;;;;5078874;28;20173;-82
2023/05/07 09:29:26;;;;;;;9.53;8.03;;;18.60;1.00;;;;;;5080820;28;20171;-82
2023/05/07 09:31:51;;;;;;;11.03;8.53;;;18.50;1.00;;;;;;5081400;28;20232;-81
2023/05/07 09:34:17;;;;;;;9.97;7.77;;;18.40;1.00;;;;;;5080945;28;20173;-83
2023/05/07 09:36:42;;;;;;;9.60;7.37;;;18.20;1.00;;;;;;5080111;28;20227;-83
2023/05/07 09:39:08;;;;;;;9.43;7.67;;;18.10;99.90;;;;;;5079315;28;20233;-82
2023/05/07 09:41:44;;;;;;;8.17;7.33;;;18.10;99.90;;;;;;5078553;28;20196;-82
2023/05/07 09:44:09;;;;;;;9.83;7.90;;;18.20;1.00;;;;;;5081754;28;20207;-80
2023/05/07 09:46:38;;;;;;;9.00;7.33;;;18.20;1.00;;;;;;5080146;28;20173;-84
2023/05/07 09:49:10;;;;;;;7.53;6.73;;;18.30;1.00;;;;;;5081901;28;20226;-83
2023/05/07 09:51:48;;;;;;;7.90;6.70;;;18.40;99.90;;;;;;5083716;28;20197;-84
2023/05/07 09:54:14;;;;;;;8.63;7.30;;;18.60;1.00;;;;;;5082283;28;20183;-81
2023/05/07 09:56:43;;;;;;;8.90;7.07;;;18.90;99.90;;;;;;5052142;28;20184;-84
2023/05/07 09:59:12;;;;;;;7.50;6.70;;;18.90;1.60;;;;;;5073195;28;20185;-83
2023/05/07 10:01:39;;;;;;;8.83;6.90;;;18.90;99.90;;;;;;5065486;28;20201;-84
2023/05/07 10:04:05;;;;;;;7.93;6.90;;;18.90;1.00;;;;;;5079583;28;20181;-84
2023/05/07 10:06:31;;;;;;;8.73;6.80;;;18.90;99.90;;;;;;5083147;28;20177;-84
2023/05/07 10:08:58;;;;;;;7.77;6.80;;;18.90;1.00;;;;;;5082042;28;20173;-84
2023/05/07 10:11:24;;;;;;;7.37;5.97;;;18.90;99.90;;;;;;5080795;28;20231;-81
2023/05/07 10:13:52;;;;;;;7.03;6.33;;;19.10;1.00;;;;;;5053808;28;20186;-83
2023/05/07 10:16:18;;;;;;;7.03;6.33;;;19.30;1.00;;;;;;5056622;28;20177;-81
2023/05/07 10:18:45;;;;;;;7.93;5.90;;;19.50;99.90;;;;;;5068743;28;20169;-80
2023/05/07 10:21:18;;;;;;;6.15;5.40;;;20.20;99.90;;;;;;5078298;28;20196;-80
2023/05/07 10:23:50;;;;;;;6.85;5.63;;;20.70;1.00;;;;;;5077808;28;20211;-81
2023/05/07 10:26:18;;;;;;;6.50;5.60;;;21.20;1.00;;;;;;5077807;28;20201;-81
2023/05/07 10:28:47;;;;;;;5.35;4.85;;;21.10;1.00;;;;;;5077373;28;20177;-79
2023/05/07 10:31:37;;;;;;;6.07;5.20;;;21.20;1.00;;;;;;5071362;28;20342;-80
2023/05/07 10:34:08;;;;;;;5.60;5.10;;;21.50;1.00;;;;;;5058227;28;20165;-79
2023/05/07 10:36:34;;;;;;;5.25;4.75;;;21.80;1.00;;;;;;5058986;28;20648;-81
2023/05/07 10:39:00;;;;;;;5.93;5.25;;;22.20;1.00;;;;;;5059115;28;20170;-82
2023/05/07 10:41:25;;;;;;;5.45;4.32;;;22.50;99.90;;;;;;5057916;28;20189;-81
2023/05/07 10:43:51;;;;;;;5.78;5.18;;;22.60;99.90;;;;;;5058595;28;20196;-86
2023/05/07 10:46:20;;;;;;;5.50;4.97;;;22.80;99.90;;;;;;5060532;28;20202;-85
2023/05/07 10:49:06;;;;;;;5.43;4.93;;;22.70;1.00;;;;;;5060435;28;20173;-85
2023/05/07 10:51:35;;;;;;;4.82;4.40;;;22.70;1.00;;;;;;5062823;28;20217;-84
2023/05/07 10:54:10;;;;;;;5.07;4.57;;;22.30;3.90;;;;;;5060939;28;20264;-85
2023/05/07 10:56:37;;;;;;;4.88;4.38;;;22.20;99.90;;;;;;5063492;28;20200;-86
2023/05/07 10:59:26;;;;;;;5.38;4.88;;;22.20;5.60;;;;;;5063476;28;20204;-85
2023/05/07 11:02:03;;;;;;;5.28;4.50;;;22.10;6.50;;;;;;5063821;28;20260;-83
2023/05/07 11:04:31;;;;;;;5.38;4.80;;;22.10;99.90;;;;;;5061070;28;20228;-85
2023/05/07 11:07:06;;;;;;;5.15;4.65;;;22.10;94.90;;;;;;5063570;28;20181;-85
2023/05/07 11:10:07;;;;;;;5.25;4.80;;;21.90;99.90;;;;;;5061420;28;20564;-85
2023/05/07 11:12:36;;;;;;;5.40;4.90;;;21.70;99.90;;;;;;5021247;28;20204;-85
2023/05/07 11:15:06;;;;;;;5.45;4.95;;;22.00;99.90;;;;;;5054654;28;20186;-85
2023/05/07 11:17:34;;;;;;;5.30;4.75;;;22.10;48.50;;;;;;5060216;28;20694;-85
2023/05/07 11:20:01;;;;;;;5.40;4.90;;;22.20;47.90;;;;;;5060999;28;20204;-85
2023/05/07 11:22:36;;;;;;;5.30;4.80;;;22.30;99.90;;;;;;5061486;28;20635;-85
2023/05/07 11:25:03;;;;;;;5.35;4.85;;;22.50;63.30;;;;;;5063243;28;20271;-86
2023/05/07 11:27:29;;;;;;;5.60;5.10;;;22.70;90.30;;;;;;5064267;28;20176;-85
2023/05/07 11:29:55;;;;;;;5.72;4.88;;;22.80;1.00;;;;;;5064310;28;20291;-85
2023/05/07 11:32:28;;;;;;;5.45;4.32;;;22.70;1.00;;;;;;5065220;28;20199;-85
2023/05/07 11:34:55;;;;;;;4.68;4.10;;;22.50;1.00;;;;;;5065950;28;20185;-84
2023/05/07 11:37:22;;;;;;;4.95;4.45;;;22.40;1.00;;;;;;5065705;28;20181;-84
2023/05/07 11:39:48;;;;;;;5.15;4.65;;;22.50;1.30;;;;;;5065088;28;20251;-84
2023/05/07 11:42:28;;;;;;;5.57;4.60;;;22.70;1.00;;;;;;5066414;28;20178;-86
2023/05/07 11:44:54;;;;;;;4.70;4.20;;;22.60;1.00;;;;;;5066057;28;20201;-85
2023/05/07 11:47:20;;;;;;;5.68;4.35;;;22.60;1.00;;;;;;5066359;28;20193;-82
2023/05/07 11:49:50;;;;;;;4.55;4.13;;;23.00;1.00;;;;;;5065548;28;20190;-86
2023/05/07 11:52:17;;;;;;;4.20;3.78;;;23.10;1.00;;;;;;5064323;28;20180;-86
2023/05/07 11:54:57;;;;;;;6.93;3.85;;;22.90;1.00;;;;;;5064349;28;20181;-84
2023/05/07 11:57:23;;;;;;;4.78;4.38;;;22.80;1.00;;;;;;5067313;28;20264;-86
2023/05/07 11:59:53;;;;;;;5.72;5.18;;;23.00;1.00;;;;;;5064670;28;20239;-83
2023/05/07 12:02:19;;;;;;;5.32;4.82;;;23.00;1.00;;;;;;5064657;28;20174;-84
2023/05/07 12:04:45;;;;;;;6.00;4.80;;;22.30;1.00;;;;;;5064539;28;20201;-84
2023/05/07 12:07:15;;;;;;;5.53;5.00;;;21.90;99.90;;;;;;5065294;28;20645;-84
2023/05/07 12:09:45;;;;;;;6.60;5.40;;;21.70;99.90;;;;;;5065087;28;20838;-85
2023/05/07 12:12:11;;;;;;;6.03;5.38;;;21.80;99.90;;;;;;5064278;28;20261;-85
2023/05/07 12:14:41;;;;;;;5.85;5.25;;;21.60;99.90;;;;;;5057963;28;20182;-85
2023/05/07 12:17:08;;;;;;;5.40;4.88;;;21.50;99.90;;;;;;5058424;28;20219;-82
2023/05/07 12:19:34;;;;;;;5.50;5.00;;;21.40;1.00;;;;;;5060606;28;20189;-82
2023/05/07 12:22:02;;;;;;;5.50;4.90;;;21.70;1.00;;;;;;5061659;28;20186;-81
2023/05/07 12:24:28;;;;;;;4.97;4.45;;;21.80;99.90;;;;;;5063614;28;20197;-81
2023/05/07 12:26:54;;;;;;;5.40;4.90;;;21.80;1.00;;;;;;5062948;28;20169;-81
2023/05/07 12:29:23;;;;;;;5.65;5.05;;;21.70;99.90;;;;;;5063218;28;20268;-82
2023/05/07 12:31:50;;;;;;;5.82;5.22;;;21.60;99.90;;;;;;5071756;28;20660;-81
2023/05/07 12:34:15;;;;;;;5.65;5.07;;;21.50;99.90;;;;;;5076828;28;20619;-81
2023/05/07 12:36:41;;;;;;;5.75;5.00;;;21.80;99.90;;;;;;5075960;28;20182;-81
2023/05/07 12:39:08;;;;;;;5.05;4.55;;;22.30;99.90;;;;;;5041049;28;20193;-81
2023/05/07 12:41:56;;;;;;;5.13;4.63;;;22.60;1.00;;;;;;5045926;28;20205;-83